sensor_id;sensor_type;location;lat;lon;timestamp;pressure;altitude;pressure_sealevel;temperature;humidity
6567;BME280;3317;43.994;22.878;2023-01-29T00:00:20;101366.72;;;3.70;74.65
6567;BME280;3317;43.994;22.878;2023-01-29T00:02:47;101371.06;;;3.73;74.45
6567;BME280;3317;43.994;22.878;2023-01-29T00:05:16;101347.25;;;3.52;74.63
6567;BME280;3317;43.994;22.878;2023-01-29T00:07:43;101376.50;;;3.71;74.42
6567;BME280;3317;43.994;22.878;2023-01-29T00:10:10;101388.19;;;3.70;74.59
6567;BME280;3317;43.994;22.878;2023-01-29T00:12:37;101373.94;;;3.70;74.54
6567;BME280;3317;43.994;22.878;2023-01-29T00:15:06;101380.13;;;3.70;74.30
6567;BME280;3317;43.994;22.878;2023-01-29T00:17:33;101388.19;;;3.70;74.70
6567;BME280;3317;43.994;22.878;2023-01-29T00:20:00;101390.84;;;3.70;74.25
6567;BME280;3317;43.994;22.878;2023-01-29T00:22:28;101400.63;;;3.71;74.53
6567;BME280;3317;43.994;22.878;2023-01-29T00:24:55;101400.75;;;3.70;74.41
6567;BME280;3317;43.994;22.878;2023-01-29T00:27:22;101398.81;;;3.72;74.45
6567;BME280;3317;43.994;22.878;2023-01-29T00:29:49;101398.91;;;3.70;74.23
6567;BME280;3317;43.994;22.878;2023-01-29T00:32:34;101403.56;;;3.66;74.48
6567;BME280;3317;43.994;22.878;2023-01-29T00:35:01;101408.19;;;3.64;74.39
6567;BME280;3317;43.994;22.878;2023-01-29T00:37:29;101410.78;;;3.66;74.32
6567;BME280;3317;43.994;22.878;2023-01-29T00:39:56;101409.81;;;3.67;74.45
6567;BME280;3317;43.994;22.878;2023-01-29T00:42:23;101413.06;;;3.72;74.42
6567;BME280;3317;43.994;22.878;2023-01-29T00:45:09;101419.59;;;3.68;74.48
6567;BME280;3317;43.994;22.878;2023-01-29T00:47:36;101417.75;;;3.69;74.27
6567;BME280;3317;43.994;22.878;2023-01-29T00:50:04;101373.00;;;3.40;74.43
6567;BME280;3317;43.994;22.878;2023-01-29T00:52:33;101426.59;;;3.71;74.48
6567;BME280;3317;43.994;22.878;2023-01-29T00:55:01;101421.88;;;3.74;74.07
6567;BME280;3317;43.994;22.878;2023-01-29T00:57:30;101426.47;;;3.72;74.36
6567;BME280;3317;43.994;22.878;2023-01-29T00:59:57;101428.19;;;3.73;74.45
6567;BME280;3317;43.994;22.878;2023-01-29T01:02:25;101429.94;;;3.74;74.31
6567;BME280;3317;43.994;22.878;2023-01-29T01:05:24;101426.28;;;3.75;74.16
6567;BME280;3317;43.994;22.878;2023-01-29T01:07:54;101435.13;;;3.77;74.13
6567;BME280;3317;43.994;22.878;2023-01-29T01:10:24;101434.16;;;3.78;74.42
6567;BME280;3317;43.994;22.878;2023-01-29T01:12:53;101429.75;;;3.77;74.53
6567;BME280;3317;43.994;22.878;2023-01-29T01:15:22;101430.72;;;3.76;74.26
6567;BME280;3317;43.994;22.878;2023-01-29T01:17:53;101434.31;;;3.75;74.14
6567;BME280;3317;43.994;22.878;2023-01-29T01:20:20;101437.88;;;3.76;74.20
6567;BME280;3317;43.994;22.878;2023-01-29T01:22:47;101432.53;;;3.76;74.48
6567;BME280;3317;43.994;22.878;2023-01-29T01:25:15;101431.50;;;3.78;74.20
6567;BME280;3317;43.994;22.878;2023-01-29T01:27:43;101427.16;;;3.76;74.08
6567;BME280;3317;43.994;22.878;2023-01-29T01:30:12;101383.34;;;3.46;74.31
6567;BME280;3317;43.994;22.878;2023-01-29T01:32:40;101433.41;;;3.76;74.42
6567;BME280;3317;43.994;22.878;2023-01-29T01:35:08;101431.56;;;3.77;74.00
6567;BME280;3317;43.994;22.878;2023-01-29T01:37:35;101438.66;;;3.78;73.90
6567;BME280;3317;43.994;22.878;2023-01-29T01:40:04;101382.56;;;3.44;74.17
6567;BME280;3317;43.994;22.878;2023-01-29T01:42:38;101438.56;;;3.79;73.88
6567;BME280;3317;43.994;22.878;2023-01-29T01:45:07;101439.41;;;3.80;74.00
6567;BME280;3317;43.994;22.878;2023-01-29T01:47:46;101433.22;;;3.79;73.96
6567;BME280;3317;43.994;22.878;2023-01-29T01:50:16;101436.09;;;3.76;74.23
6567;BME280;3317;43.994;22.878;2023-01-29T01:52:47;101433.41;;;3.76;73.99
6567;BME280;3317;43.994;22.878;2023-01-29T01:55:16;101442.56;;;3.72;74.18
6567;BME280;3317;43.994;22.878;2023-01-29T01:57:51;101443.16;;;3.77;73.78
6567;BME280;3317;43.994;22.878;2023-01-29T02:00:19;101437.00;;;3.75;73.93
6567;BME280;3317;43.994;22.878;2023-01-29T02:02:47;101435.22;;;3.76;74.13
6567;BME280;3317;43.994;22.878;2023-01-29T02:05:33;101429.28;;;3.71;73.78
6567;BME280;3317;43.994;22.878;2023-01-29T02:08:20;101443.53;;;3.71;74.05
6567;BME280;3317;43.994;22.878;2023-01-29T02:11:07;101441.78;;;3.70;74.24
6567;BME280;3317;43.994;22.878;2023-01-29T02:13:36;101445.34;;;3.71;74.22
6567;BME280;3317;43.994;22.878;2023-01-29T02:16:03;101447.94;;;3.72;74.27
6567;BME280;3317;43.994;22.878;2023-01-29T02:18:30;101446.19;;;3.71;74.48
6567;BME280;3317;43.994;22.878;2023-01-29T02:21:20;101441.88;;;3.69;74.60
6567;BME280;3317;43.994;22.878;2023-01-29T02:24:16;101443.63;;;3.70;74.42
6567;BME280;3317;43.994;22.878;2023-01-29T02:27:02;101443.63;;;3.70;74.21
6567;BME280;3317;43.994;22.878;2023-01-29T02:29:38;101450.59;;;3.72;74.13
6567;BME280;3317;43.994;22.878;2023-01-29T02:32:15;101447.09;;;3.72;74.53
6567;BME280;3317;43.994;22.878;2023-01-29T02:34:51;101440.84;;;3.71;74.26
6567;BME280;3317;43.994;22.878;2023-01-29T02:37:38;101449.66;;;3.73;74.22
6567;BME280;3317;43.994;22.878;2023-01-29T02:40:14;101451.56;;;3.71;74.18
6567;BME280;3317;43.994;22.878;2023-01-29T02:42:52;101449.50;;;3.76;73.86
6567;BME280;3317;43.994;22.878;2023-01-29T02:45:30;101451.38;;;3.74;74.20
6567;BME280;3317;43.994;22.878;2023-01-29T02:48:00;101455.97;;;3.72;74.30
6567;BME280;3317;43.994;22.878;2023-01-29T02:50:30;101444.56;;;3.69;74.04
6567;BME280;3317;43.994;22.878;2023-01-29T02:53:01;101453.91;;;3.77;73.96
6567;BME280;3317;43.994;22.878;2023-01-29T02:55:34;101449.50;;;3.76;73.87
6567;BME280;3317;43.994;22.878;2023-01-29T02:58:08;101444.28;;;3.73;73.72
6567;BME280;3317;43.994;22.878;2023-01-29T03:00:40;101453.91;;;3.77;73.14
6567;BME280;3317;43.994;22.878;2023-01-29T03:03:13;101442.69;;;3.71;73.50
6567;BME280;3317;43.994;22.878;2023-01-29T03:05:47;101449.66;;;3.73;73.56
6567;BME280;3317;43.994;22.878;2023-01-29T03:08:22;101451.56;;;3.71;73.46
6567;BME280;3317;43.994;22.878;2023-01-29T03:11:03;101445.34;;;3.71;73.28
6567;BME280;3317;43.994;22.878;2023-01-29T03:13:35;101443.72;;;3.68;73.19
6567;BME280;3317;43.994;22.878;2023-01-29T03:16:09;101445.44;;;3.69;73.51
6567;BME280;3317;43.994;22.878;2023-01-29T03:18:41;101451.00;;;3.66;73.46
6567;BME280;3317;43.994;22.878;2023-01-29T03:21:14;101451.94;;;3.65;73.38
6567;BME280;3317;43.994;22.878;2023-01-29T03:24:00;101443.03;;;3.64;73.24
6567;BME280;3317;43.994;22.878;2023-01-29T03:26:46;101452.78;;;3.65;73.21
6567;BME280;3317;43.994;22.878;2023-01-29T03:29:31;101459.09;;;3.64;73.70
6567;BME280;3317;43.994;22.878;2023-01-29T03:32:20;101460.16;;;3.62;73.23
6567;BME280;3317;43.994;22.878;2023-01-29T03:34:58;101456.63;;;3.61;73.32
6567;BME280;3317;43.994;22.878;2023-01-29T03:37:32;101458.59;;;3.58;73.64
6567;BME280;3317;43.994;22.878;2023-01-29T03:40:01;101459.38;;;3.60;73.18
6567;BME280;3317;43.994;22.878;2023-01-29T03:42:36;101454.00;;;3.60;73.40
6567;BME280;3317;43.994;22.878;2023-01-29T03:45:12;101451.34;;;3.60;73.55
6567;BME280;3317;43.994;22.878;2023-01-29T03:47:45;101450.38;;;3.61;73.79
6567;BME280;3317;43.994;22.878;2023-01-29T03:50:23;101452.28;;;3.59;73.72
6567;BME280;3317;43.994;22.878;2023-01-29T03:53:01;101456.81;;;3.58;73.58
6567;BME280;3317;43.994;22.878;2023-01-29T03:55:35;101453.16;;;3.59;73.59
6567;BME280;3317;43.994;22.878;2023-01-29T03:58:08;101455.94;;;3.58;73.74
6567;BME280;3317;43.994;22.878;2023-01-29T04:00:44;101457.84;;;3.56;73.53
6567;BME280;3317;43.994;22.878;2023-01-29T04:03:19;101461.22;;;3.59;73.67
6567;BME280;3317;43.994;22.878;2023-01-29T04:05:51;101454.97;;;3.59;73.63
6567;BME280;3317;43.994;22.878;2023-01-29T04:08:33;101452.56;;;3.54;73.81
6567;BME280;3317;43.994;22.878;2023-01-29T04:11:05;101462.31;;;3.55;73.63
6567;BME280;3317;43.994;22.878;2023-01-29T04:13:35;101452.47;;;3.56;73.85
6567;BME280;3317;43.994;22.878;2023-01-29T04:16:05;101465.13;;;3.54;73.74
6567;BME280;3317;43.994;22.878;2023-01-29T04:18:36;101462.31;;;3.55;73.76
6567;BME280;3317;43.994;22.878;2023-01-29T04:21:04;101465.97;;;3.54;74.00
6567;BME280;3317;43.994;22.878;2023-01-29T04:23:32;101474.63;;;3.59;73.63
6567;BME280;3317;43.994;22.878;2023-01-29T04:26:10;101475.47;;;3.60;73.52
6567;BME280;3317;43.994;22.878;2023-01-29T04:28:54;101468.28;;;3.60;73.47
6567;BME280;3317;43.994;22.878;2023-01-29T04:31:29;101485.22;;;3.61;73.79
6567;BME280;3317;43.994;22.878;2023-01-29T04:34:08;101476.22;;;3.62;73.75
6567;BME280;3317;43.994;22.878;2023-01-29T04:36:46;101478.91;;;3.62;73.64
6567;BME280;3317;43.994;22.878;2023-01-29T04:39:21;101476.22;;;3.62;73.50
6567;BME280;3317;43.994;22.878;2023-01-29T04:41:53;101483.34;;;3.63;73.51
6567;BME280;3317;43.994;22.878;2023-01-29T04:44:34;101480.66;;;3.63;73.76
6567;BME280;3317;43.994;22.878;2023-01-29T04:47:13;101478.63;;;3.66;73.41
6567;BME280;3317;43.994;22.878;2023-01-29T04:49:51;101489.63;;;3.62;73.71
6567;BME280;3317;43.994;22.878;2023-01-29T04:52:25;101490.88;;;3.56;73.51
6567;BME280;3317;43.994;22.878;2023-01-29T04:55:00;101498.47;;;3.64;73.36
6567;BME280;3317;43.994;22.878;2023-01-29T04:57:33;101500.19;;;3.65;73.71
6567;BME280;3317;43.994;22.878;2023-01-29T05:00:05;101482.91;;;3.55;73.43
6567;BME280;3317;43.994;22.878;2023-01-29T05:02:38;101502.97;;;3.63;73.82
6567;BME280;3317;43.994;22.878;2023-01-29T05:05:07;101502.09;;;3.63;73.47
6567;BME280;3317;43.994;22.878;2023-01-29T05:07:37;101505.72;;;3.62;73.82
6567;BME280;3317;43.994;22.878;2023-01-29T05:10:07;101503.84;;;3.64;73.90
6567;BME280;3317;43.994;22.878;2023-01-29T05:12:37;101503.91;;;3.62;74.01
6567;BME280;3317;43.994;22.878;2023-01-29T05:15:11;101500.34;;;3.62;74.06
6567;BME280;3317;43.994;22.878;2023-01-29T05:17:40;101504.88;;;3.61;73.95
6567;BME280;3317;43.994;22.878;2023-01-29T05:20:10;101504.00;;;3.61;73.98
6567;BME280;3317;43.994;22.878;2023-01-29T05:22:39;101503.13;;;3.60;73.88
6567;BME280;3317;43.994;22.878;2023-01-29T05:25:19;101503.34;;;3.57;73.95
6567;BME280;3317;43.994;22.878;2023-01-29T05:27:48;101513.94;;;3.59;73.88
6567;BME280;3317;43.994;22.878;2023-01-29T05:30:30;101509.53;;;3.58;74.09
6567;BME280;3317;43.994;22.878;2023-01-29T05:32:58;101513.25;;;3.55;74.08
6567;BME280;3317;43.994;22.878;2023-01-29T05:35:26;101507.22;;;3.51;74.06
6567;BME280;3317;43.994;22.878;2023-01-29T05:37:54;101518.78;;;3.52;74.09
6567;BME280;3317;43.994;22.878;2023-01-29T05:40:21;101512.47;;;3.53;74.12
6567;BME280;3317;43.994;22.878;2023-01-29T05:42:48;101507.22;;;3.51;74.36
6567;BME280;3317;43.994;22.878;2023-01-29T05:45:16;101512.66;;;3.50;74.16
6567;BME280;3317;43.994;22.878;2023-01-29T05:47:43;101507.56;;;3.45;74.41
6567;BME280;3317;43.994;22.878;2023-01-29T05:50:11;101517.34;;;3.46;74.64
6567;BME280;3317;43.994;22.878;2023-01-29T05:52:40;101519.25;;;3.44;74.29
6567;BME280;3317;43.994;22.878;2023-01-29T05:55:08;101505.41;;;3.36;74.72
6567;BME280;3317;43.994;22.878;2023-01-29T05:57:35;101507.16;;;3.37;74.62
6567;BME280;3317;43.994;22.878;2023-01-29T06:00:03;101525.03;;;3.52;74.71
6567;BME280;3317;43.994;22.878;2023-01-29T06:02:30;101532.63;;;3.44;74.56
6567;BME280;3317;43.994;22.878;2023-01-29T06:04:57;101528.06;;;3.46;74.72
6567;BME280;3317;43.994;22.878;2023-01-29T06:07:24;101531.16;;;3.38;74.52
6567;BME280;3317;43.994;22.878;2023-01-29T06:09:52;101535.41;;;3.43;74.79
6567;BME280;3317;43.994;22.878;2023-01-29T06:12:19;101534.63;;;3.41;74.62
6567;BME280;3317;43.994;22.878;2023-01-29T06:14:46;101541.63;;;3.43;74.51
6567;BME280;3317;43.994;22.878;2023-01-29T06:17:13;101541.81;;;3.40;75.03
6567;BME280;3317;43.994;22.878;2023-01-29T06:19:40;101548.78;;;3.43;75.11
6567;BME280;3317;43.994;22.878;2023-01-29T06:22:07;101552.16;;;3.46;75.52
6567;BME280;3317;43.994;22.878;2023-01-29T06:24:34;101528.94;;;3.31;75.19
6567;BME280;3317;43.994;22.878;2023-01-29T06:27:02;101551.41;;;3.44;75.48
6567;BME280;3317;43.994;22.878;2023-01-29T06:29:29;101553.31;;;3.42;75.36
6567;BME280;3317;43.994;22.878;2023-01-29T06:31:56;101567.56;;;3.43;75.15
6567;BME280;3317;43.994;22.878;2023-01-29T06:34:23;101566.72;;;3.42;75.06
6567;BME280;3317;43.994;22.878;2023-01-29T06:36:50;101576.47;;;3.43;75.00
6567;BME280;3317;43.994;22.878;2023-01-29T06:39:16;101575.59;;;3.43;75.10
6567;BME280;3317;43.994;22.878;2023-01-29T06:41:43;101577.44;;;3.42;75.08
6567;BME280;3317;43.994;22.878;2023-01-29T06:44:12;101582.78;;;3.42;75.11
6567;BME280;3317;43.994;22.878;2023-01-29T06:46:39;101580.94;;;3.43;75.15
6567;BME280;3317;43.994;22.878;2023-01-29T06:49:06;101577.34;;;3.44;75.24
6567;BME280;3317;43.994;22.878;2023-01-29T06:51:33;101587.19;;;3.43;75.20
6567;BME280;3317;43.994;22.878;2023-01-29T06:53:59;101593.56;;;3.41;75.27
6567;BME280;3317;43.994;22.878;2023-01-29T06:56:26;101601.38;;;3.45;75.33
6567;BME280;3317;43.994;22.878;2023-01-29T06:58:53;101597.84;;;3.45;75.35
6567;BME280;3317;43.994;22.878;2023-01-29T07:01:21;101593.44;;;3.44;75.41
6567;BME280;3317;43.994;22.878;2023-01-29T07:03:49;101582.59;;;3.45;75.56
6567;BME280;3317;43.994;22.878;2023-01-29T07:06:16;101594.47;;;3.57;75.55
6567;BME280;3317;43.994;22.878;2023-01-29T07:08:43;101596.34;;;3.55;75.57
6567;BME280;3317;43.994;22.878;2023-01-29T07:11:10;101598.63;;;3.63;75.63
6567;BME280;3317;43.994;22.878;2023-01-29T07:13:37;101605.53;;;3.67;75.93
6567;BME280;3317;43.994;22.878;2023-01-29T07:16:05;101598.94;;;3.73;75.70
6567;BME280;3317;43.994;22.878;2023-01-29T07:18:33;101600.56;;;3.75;75.78
6567;BME280;3317;43.994;22.878;2023-01-29T07:21:03;101591.22;;;3.83;75.54
6567;BME280;3317;43.994;22.878;2023-01-29T07:23:32;101598.94;;;3.89;75.30
6567;BME280;3317;43.994;22.878;2023-01-29T07:26:00;101581.19;;;3.86;75.49
6567;BME280;3317;43.994;22.878;2023-01-29T07:28:28;101604.44;;;4.02;75.18
6567;BME280;3317;43.994;22.878;2023-01-29T07:30:56;101596.81;;;4.10;75.11
6567;BME280;3317;43.994;22.878;2023-01-29T07:33:23;101600.00;;;4.17;75.19
6567;BME280;3317;43.994;22.878;2023-01-29T07:35:52;101598.75;;;4.22;74.74
6567;BME280;3317;43.994;22.878;2023-01-29T07:38:19;101585.44;;;4.21;74.70
6567;BME280;3317;43.994;22.878;2023-01-29T07:40:46;101600.91;;;4.46;74.52
6567;BME280;3317;43.994;22.878;2023-01-29T07:43:13;101598.72;;;4.53;74.23
6567;BME280;3317;43.994;22.878;2023-01-29T07:45:40;101602.97;;;4.57;74.02
6567;BME280;3317;43.994;22.878;2023-01-29T07:48:10;101615.03;;;4.64;73.92
6567;BME280;3317;43.994;22.878;2023-01-29T07:50:38;101610.47;;;4.67;73.82
6567;BME280;3317;43.994;22.878;2023-01-29T07:53:06;101621.50;;;4.76;73.14
6567;BME280;3317;43.994;22.878;2023-01-29T07:55:33;101621.22;;;4.81;72.91
6567;BME280;3317;43.994;22.878;2023-01-29T07:58:01;101625.44;;;4.85;72.55
6567;BME280;3317;43.994;22.878;2023-01-29T08:00:30;101626.00;;;4.90;72.21
6567;BME280;3317;43.994;22.878;2023-01-29T08:03:01;101623.16;;;4.93;71.62
6567;BME280;3317;43.994;22.878;2023-01-29T08:05:29;101622.84;;;4.98;71.28
6567;BME280;3317;43.994;22.878;2023-01-29T08:07:56;101632.53;;;5.01;71.68
6567;BME280;3317;43.994;22.878;2023-01-29T08:10:24;101632.94;;;5.09;71.62
6567;BME280;3317;43.994;22.878;2023-01-29T08:12:55;101628.13;;;5.14;71.48
6567;BME280;3317;43.994;22.878;2023-01-29T08:15:22;101625.22;;;5.17;71.34
6567;BME280;3317;43.994;22.878;2023-01-29T08:17:50;101632.03;;;5.23;71.39
6567;BME280;3317;43.994;22.878;2023-01-29T08:20:18;101634.28;;;5.31;71.44
6567;BME280;3317;43.994;22.878;2023-01-29T08:22:45;101632.06;;;5.38;71.04
6567;BME280;3317;43.994;22.878;2023-01-29T08:25:12;101636.16;;;5.43;71.18
6567;BME280;3317;43.994;22.878;2023-01-29T08:27:41;101639.97;;;5.54;71.04
6567;BME280;3317;43.994;22.878;2023-01-29T08:30:09;101637.00;;;5.58;70.88
6567;BME280;3317;43.994;22.878;2023-01-29T08:32:36;101634.09;;;5.61;70.47
6567;BME280;3317;43.994;22.878;2023-01-29T08:35:04;101634.47;;;5.70;70.40
6567;BME280;3317;43.994;22.878;2023-01-29T08:37:31;101633.97;;;5.77;70.57
6567;BME280;3317;43.994;22.878;2023-01-29T08:39:58;101646.06;;;5.85;70.66
6567;BME280;3317;43.994;22.878;2023-01-29T08:42:25;101643.28;;;5.86;69.62
6567;BME280;3317;43.994;22.878;2023-01-29T08:44:54;101632.41;;;5.88;68.65
6567;BME280;3317;43.994;22.878;2023-01-29T08:47:21;101642.13;;;5.90;68.56
6567;BME280;3317;43.994;22.878;2023-01-29T08:49:48;101649.03;;;5.95;68.44
6567;BME280;3317;43.994;22.878;2023-01-29T08:52:15;101645.56;;;5.92;68.84
6567;BME280;3317;43.994;22.878;2023-01-29T08:54:42;101648.72;;;5.99;68.53
6567;BME280;3317;43.994;22.878;2023-01-29T08:57:08;101649.41;;;6.03;68.11
6567;BME280;3317;43.994;22.878;2023-01-29T08:59:35;101648.34;;;6.05;67.83
6567;BME280;3317;43.994;22.878;2023-01-29T09:02:04;101641.97;;;6.06;67.87
6567;BME280;3317;43.994;22.878;2023-01-29T09:04:30;101652.16;;;6.16;68.16
6567;BME280;3317;43.994;22.878;2023-01-29T09:06:57;101644.53;;;6.23;68.41
6567;BME280;3317;43.994;22.878;2023-01-29T09:09:25;101643.16;;;6.30;68.90
6567;BME280;3317;43.994;22.878;2023-01-29T09:11:51;101645.53;;;6.34;68.64
6567;BME280;3317;43.994;22.878;2023-01-29T09:14:18;101644.88;;;6.44;69.40
6567;BME280;3317;43.994;22.878;2023-01-29T09:16:45;101637.47;;;6.47;69.06
6567;BME280;3317;43.994;22.878;2023-01-29T09:19:13;101641.88;;;6.48;68.71
6567;BME280;3317;43.994;22.878;2023-01-29T09:21:40;101636.41;;;6.50;67.44
6567;BME280;3317;43.994;22.878;2023-01-29T09:24:07;101639.53;;;6.57;67.35
6567;BME280;3317;43.994;22.878;2023-01-29T09:26:35;101648.47;;;6.57;65.91
6567;BME280;3317;43.994;22.878;2023-01-29T09:29:04;101632.13;;;6.60;65.63
6567;BME280;3317;43.994;22.878;2023-01-29T09:31:31;101630.94;;;6.65;65.79
6567;BME280;3317;43.994;22.878;2023-01-29T09:33:57;101636.00;;;6.69;65.12
6567;BME280;3317;43.994;22.878;2023-01-29T09:36:26;101612.41;;;6.60;65.19
6567;BME280;3317;43.994;22.878;2023-01-29T09:38:53;101632.78;;;6.77;65.34
6567;BME280;3317;43.994;22.878;2023-01-29T09:41:36;101628.22;;;6.78;64.82
6567;BME280;3317;43.994;22.878;2023-01-29T09:44:11;101625.97;;;6.84;64.62
6567;BME280;3317;43.994;22.878;2023-01-29T09:46:41;101624.06;;;6.86;64.24
6567;BME280;3317;43.994;22.878;2023-01-29T09:49:14;101623.59;;;6.93;63.81
6567;BME280;3317;43.994;22.878;2023-01-29T09:51:50;101616.06;;;6.98;63.92
6567;BME280;3317;43.994;22.878;2023-01-29T09:54:22;101619.06;;;7.06;63.79
6567;BME280;3317;43.994;22.878;2023-01-29T09:56:54;101615.41;;;7.07;63.30
6567;BME280;3317;43.994;22.878;2023-01-29T09:59:23;101605.38;;;7.09;63.55
6567;BME280;3317;43.994;22.878;2023-01-29T10:01:58;101610.34;;;7.15;63.80
6567;BME280;3317;43.994;22.878;2023-01-29T10:04:52;101607.94;;;7.24;63.73
6567;BME280;3317;43.994;22.878;2023-01-29T10:07:48;101597.69;;;7.29;64.07
6567;BME280;3317;43.994;22.878;2023-01-29T10:10:29;101600.38;;;7.29;63.22
6567;BME280;3317;43.994;22.878;2023-01-29T10:13:06;101591.56;;;7.27;62.22
6567;BME280;3317;43.994;22.878;2023-01-29T10:15:57;101591.31;;;7.30;62.22
6567;BME280;3317;43.994;22.878;2023-01-29T10:18:45;101577.72;;;7.31;61.47
6567;BME280;3317;43.994;22.878;2023-01-29T10:21:26;101576.81;;;7.44;61.37
6567;BME280;3317;43.994;22.878;2023-01-29T10:24:08;101554.22;;;7.33;61.32
6567;BME280;3317;43.994;22.878;2023-01-29T10:26:38;101563.88;;;7.49;61.40
6567;BME280;3317;43.994;22.878;2023-01-29T10:29:06;101559.84;;;7.55;61.76
6567;BME280;3317;43.994;22.878;2023-01-29T10:31:36;101563.38;;;7.68;61.59
6567;BME280;3317;43.994;22.878;2023-01-29T10:34:10;101560.94;;;7.77;62.09
6567;BME280;3317;43.994;22.878;2023-01-29T10:36:41;101533.56;;;7.70;61.17
6567;BME280;3317;43.994;22.878;2023-01-29T10:39:14;101554.63;;;7.89;61.04
6567;BME280;3317;43.994;22.878;2023-01-29T10:42:03;101547.88;;;7.95;60.44
6567;BME280;3317;43.994;22.878;2023-01-29T10:44:45;101551.75;;;8.03;60.35
6567;BME280;3317;43.994;22.878;2023-01-29T10:50:23;101550.22;;;8.24;60.00
6567;BME280;3317;43.994;22.878;2023-01-29T10:53:05;101553.91;;;8.34;59.97
6567;BME280;3317;43.994;22.878;2023-01-29T10:55:45;101551.47;;;8.42;59.85
6567;BME280;3317;43.994;22.878;2023-01-29T10:58:21;101549.50;;;8.44;58.29
6567;BME280;3317;43.994;22.878;2023-01-29T11:00:51;101541.06;;;8.49;58.74
6567;BME280;3317;43.994;22.878;2023-01-29T11:03:21;101545.25;;;8.53;58.79
6567;BME280;3317;43.994;22.878;2023-01-29T11:05:54;101524.09;;;8.47;58.82
6567;BME280;3317;43.994;22.878;2023-01-29T11:08:25;101538.88;;;8.54;58.33
6567;BME280;3317;43.994;22.878;2023-01-29T11:11:01;101533.06;;;8.48;57.78
6567;BME280;3317;43.994;22.878;2023-01-29T11:13:34;101534.19;;;8.45;57.88
6567;BME280;3317;43.994;22.878;2023-01-29T11:16:04;101532.56;;;8.42;57.79
6567;BME280;3317;43.994;22.878;2023-01-29T11:18:49;101534.53;;;8.40;58.23
6567;BME280;3317;43.994;22.878;2023-01-29T11:21:17;101526.88;;;8.34;57.58
6567;BME280;3317;43.994;22.878;2023-01-29T11:23:44;101531.56;;;8.32;57.81
6567;BME280;3317;43.994;22.878;2023-01-29T11:26:17;101512.78;;;8.30;58.00
6567;BME280;3317;43.994;22.878;2023-01-29T11:28:46;101510.56;;;8.24;57.96
6567;BME280;3317;43.994;22.878;2023-01-29T11:31:20;101514.34;;;8.22;57.89
6567;BME280;3317;43.994;22.878;2023-01-29T11:33:47;101466.53;;;7.88;57.52
6567;BME280;3317;43.994;22.878;2023-01-29T11:36:21;101510.03;;;8.08;57.29
6567;BME280;3317;43.994;22.878;2023-01-29T11:39:10;101511.47;;;8.00;57.07
6567;BME280;3317;43.994;22.878;2023-01-29T11:41:48;101513.91;;;7.92;56.91
6567;BME280;3317;43.994;22.878;2023-01-29T11:44:20;101514.13;;;7.89;58.16
6567;BME280;3317;43.994;22.878;2023-01-29T11:46:48;101510.06;;;7.83;58.32
6567;BME280;3317;43.994;22.878;2023-01-29T11:49:23;101506.00;;;7.78;58.19
6567;BME280;3317;43.994;22.878;2023-01-29T11:51:55;101511.13;;;7.69;57.75
6567;BME280;3317;43.994;22.878;2023-01-29T11:54:27;101509.44;;;7.55;57.65
6567;BME280;3317;43.994;22.878;2023-01-29T11:56:57;101514.44;;;7.49;58.21
6567;BME280;3317;43.994;22.878;2023-01-29T11:59:29;101504.38;;;7.39;58.02
6567;BME280;3317;43.994;22.878;2023-01-29T12:02:05;101514.19;;;7.40;58.43
6567;BME280;3317;43.994;22.878;2023-01-29T12:04:38;101508.25;;;7.35;58.59
6567;BME280;3317;43.994;22.878;2023-01-29T12:07:11;101507.97;;;7.27;58.82
6567;BME280;3317;43.994;22.878;2023-01-29T12:09:38;101508.94;;;7.26;58.82
6567;BME280;3317;43.994;22.878;2023-01-29T12:12:26;101512.09;;;7.19;59.27
6567;BME280;3317;43.994;22.878;2023-01-29T12:15:16;101509.63;;;7.16;59.45
6567;BME280;3317;43.994;22.878;2023-01-29T12:17:52;101500.03;;;7.12;59.63
6567;BME280;3317;43.994;22.878;2023-01-29T12:20:24;101503.16;;;7.06;59.54
6567;BME280;3317;43.994;22.878;2023-01-29T12:23:00;101493.25;;;7.07;60.00
6567;BME280;3317;43.994;22.878;2023-01-29T12:25:37;101502.75;;;6.99;59.35
6567;BME280;3317;43.994;22.878;2023-01-29T12:28:16;101432.16;;;6.57;59.64
6567;BME280;3317;43.994;22.878;2023-01-29T12:30:52;101505.91;;;6.93;59.07
6567;BME280;3317;43.994;22.878;2023-01-29T12:33:30;101501.94;;;6.86;59.10
6567;BME280;3317;43.994;22.878;2023-01-29T12:36:09;101502.81;;;6.86;59.93
6567;BME280;3317;43.994;22.878;2023-01-29T12:38:39;101501.28;;;6.82;59.62
6567;BME280;3317;43.994;22.878;2023-01-29T12:41:20;101505.59;;;6.85;60.98
6567;BME280;3317;43.994;22.878;2023-01-29T12:43:53;101513.78;;;6.83;61.23
6567;BME280;3317;43.994;22.878;2023-01-29T12:46:25;101514.31;;;6.75;60.09
6567;BME280;3317;43.994;22.878;2023-01-29T12:48:55;101505.59;;;6.72;60.14
6567;BME280;3317;43.994;22.878;2023-01-29T12:51:26;101509.25;;;6.71;59.82
6567;BME280;3317;43.994;22.878;2023-01-29T12:54:00;101503.88;;;6.71;59.78
6567;BME280;3317;43.994;22.878;2023-01-29T12:56:32;101507.44;;;6.71;60.33
6567;BME280;3317;43.994;22.878;2023-01-29T12:59:08;101505.59;;;6.72;60.41
6567;BME280;3317;43.994;22.878;2023-01-29T13:01:42;101504.97;;;6.68;59.94
6567;BME280;3317;43.994;22.878;2023-01-29T13:04:15;101504.97;;;6.68;59.50
6567;BME280;3317;43.994;22.878;2023-01-29T13:06:49;101510.88;;;6.73;60.64
6567;BME280;3317;43.994;22.878;2023-01-29T13:09:22;101507.31;;;6.73;60.10
6567;BME280;3317;43.994;22.878;2023-01-29T13:11:54;101505.28;;;6.76;60.39
6567;BME280;3317;43.994;22.878;2023-01-29T13:14:26;101504.63;;;6.73;60.01
6567;BME280;3317;43.994;22.878;2023-01-29T13:17:06;101506.03;;;6.79;59.54
6567;BME280;3317;43.994;22.878;2023-01-29T13:19:39;101472.88;;;6.52;59.43
6567;BME280;3317;43.994;22.878;2023-01-29T13:22:16;101512.28;;;6.79;58.85
6567;BME280;3317;43.994;22.878;2023-01-29T13:24:45;101514.66;;;6.84;59.29
6567;BME280;3317;43.994;22.878;2023-01-29T13:27:21;101516.28;;;6.86;59.16
6567;BME280;3317;43.994;22.878;2023-01-29T13:29:50;101520.31;;;6.92;60.05
6567;BME280;3317;43.994;22.878;2023-01-29T13:32:23;101519.38;;;6.93;59.82
6567;BME280;3317;43.994;22.878;2023-01-29T13:34:53;101522.94;;;6.94;59.50
6567;BME280;3317;43.994;22.878;2023-01-29T13:37:26;101504.53;;;6.87;59.30